White Oak, WV (25989)

4:15 AM EDT on June 03, 2015 (GMT -0400)
Cool Ridge | | Change Station
CLOSE
Current Station
Personal Weather Station
Location: Raleigh Co., WV
Elevation: 2965 ft
Nearby Weather Stations

Elev 2965 ft 37.66 °N, 81.09 °W | Updated 15 seconds ago

Fog
Fog
57.2 °F
Feels Like 57.2 °F
N
6.0
Wind Variable Wind from SSE

Today
High -- | Low -- °F
--% Chance of Precip.
Yesterday
High -- | Low -- °F
Precip. -- in
6:03 AM 8:41 PM
Waxing Gibbous, 99% visible
Pressure 30.06 in
Visibility 3.0 miles
Clouds Overcast 500 ft
Dew Point 57 °F
Humidity 100%
Rainfall 0.04 in
Snow Depth Not available.
UV 0 out of 12
Pollen .70 out of 12
Air Quality Not available.
Flu Activity Sporadic
SPECI KBKW 030803Z AUTO 00000KT 3SM BR OVC005 14/13 A3006 RMK AO2 VIS 1/4 RWY19 T01440133

More Conditions Fewer Conditions

Pressure 30.06 in
Visibility 3.0 miles
Clouds Overcast 500 ft
Dew Point 57 °F
Humidity 100%
Rainfall 0.04 in
Snow Depth Not available.
UV 0 out of 12
Pollen .70 out of 12
Air Quality Not available.
Flu Activity Sporadic
SPECI KBKW 030803Z AUTO 00000KT 3SM BR OVC005 14/13 A3006 RMK AO2 VIS 1/4 RWY19 T01440133

More Conditions Fewer Conditions

10-Day Weather Forecast

×

Almanac

Astronomy

Jun. 03, 2015 Rise Set
Actual Time
Civil Twilight
Nautical Twilight
Astronomical Twilight
Moon
Length of Visible Light
Length of Day
Tomorrow will be .
, % of the Moon is Illuminated

Today's Extremes

State Highs State Lows

Community

WunderPhotos

Upload Photos

1,826,191 photos uploaded!

WunderBlogs® & News

Nearby

Air Quality

  Air Quality AQ Index Pollutant
Not available.

Snow Depth

Station Depth Elevation

Earthquake Activity

City Distance Mag. Time & Date
Minimum magnitude displayed is 2.5.

Coastal Water Temperatures

Place Temperature

Stations

Nearby Weather Stations

Station Location Temp. Windchill Dew Point Humidity Wind Precip. Elev Updated Type